Time;durP1;ratioP1;P1;durP2;ratioP2;P2;SDS_P1;SDS_P2;PMS_P1;PMS_P2;Temp;Humidity;BMP_temperature;BMP_pressure;BME280_temperature;BME280_humidity;BME280_pressure;Samples;Min_cycle;Max_cycle;Signal;HPM_P1;HPM_P2
2021/09/21 00:01:08;;;;;;;3.77;2.90;;;13.50;99.90;;;;;;5014027;28;20176;-77
2021/09/21 00:03:34;;;;;;;5.65;4.00;;;13.50;99.90;;;;;;5015242;28;20413;-77
2021/09/21 00:06:01;;;;;;;4.25;2.70;;;13.40;99.90;;;;;;5015487;28;20259;-76
2021/09/21 00:08:27;;;;;;;3.60;2.50;;;13.40;99.90;;;;;;5013881;28;20193;-76
2021/09/21 00:10:54;;;;;;;3.65;2.85;;;13.30;99.90;;;;;;5015268;28;20227;-77
2021/09/21 00:13:20;;;;;;;3.55;2.83;;;13.40;99.90;;;;;;5015085;28;20576;-77
2021/09/21 00:15:45;;;;;;;5.33;3.30;;;13.20;99.90;;;;;;5015549;28;20253;-77
2021/09/21 00:18:11;;;;;;;4.50;3.20;;;13.10;99.90;;;;;;5015495;28;20174;-77
2021/09/21 00:20:36;;;;;;;3.70;2.50;;;13.10;99.90;;;;;;5015229;28;20188;-77
2021/09/21 00:23:02;;;;;;;6.03;2.57;;;13.10;99.90;;;;;;5014745;28;20174;-77
2021/09/21 00:25:27;;;;;;;4.40;2.90;;;13.10;99.90;;;;;;5013710;28;20182;-77
2021/09/21 00:27:53;;;;;;;5.83;3.13;;;13.20;99.90;;;;;;5014855;28;20221;-77
2021/09/21 00:30:20;;;;;;;6.07;2.87;;;13.20;99.90;;;;;;5013738;28;20565;-77
2021/09/21 00:32:49;;;;;;;2.47;2.10;;;13.20;99.90;;;;;;5014920;28;20162;-76
2021/09/21 00:35:14;;;;;;;3.97;2.95;;;13.20;99.90;;;;;;5014507;28;20576;-77
2021/09/21 00:37:40;;;;;;;8.13;3.17;;;13.10;99.90;;;;;;5014434;28;20253;-78
2021/09/21 00:40:06;;;;;;;4.63;3.07;;;13.10;99.90;;;;;;4997478;28;20530;-77
2021/09/21 00:42:32;;;;;;;3.97;2.45;;;13.10;99.90;;;;;;5014657;28;20178;-76
2021/09/21 00:45:06;;;;;;;6.77;3.20;;;13.10;99.90;;;;;;5015141;28;20268;-77
2021/09/21 00:47:32;;;;;;;6.93;3.13;;;13.10;99.90;;;;;;5013643;28;20170;-76
2021/09/21 00:49:58;;;;;;;3.85;3.00;;;13.10;99.90;;;;;;5014368;28;20178;-77
2021/09/21 00:52:24;;;;;;;11.48;3.88;;;13.10;99.90;;;;;;5014747;28;20170;-77
2021/09/21 00:54:50;;;;;;;6.53;3.40;;;13.20;99.90;;;;;;5014258;28;20202;-77
2021/09/21 00:57:15;;;;;;;4.37;3.10;;;13.30;99.90;;;;;;5014202;28;20173;-79
2021/09/21 00:59:42;;;;;;;7.13;3.17;;;13.30;99.90;;;;;;5014546;28;20409;-77
2021/09/21 01:02:07;;;;;;;3.72;2.65;;;13.20;99.90;;;;;;5014554;28;20162;-77
2021/09/21 01:04:35;;;;;;;3.67;2.70;;;13.10;99.90;;;;;;5014159;28;20180;-77
2021/09/21 01:07:00;;;;;;;6.10;2.72;;;13.10;99.90;;;;;;5012913;28;20193;-77
2021/09/21 01:09:28;;;;;;;3.90;3.17;;;13.10;99.90;;;;;;5014296;28;20205;-77
2021/09/21 01:11:56;;;;;;;3.97;2.85;;;13.10;99.90;;;;;;5014205;28;20193;-77
2021/09/21 01:14:22;;;;;;;5.38;3.67;;;13.20;99.90;;;;;;5013850;28;20190;-77
2021/09/21 01:16:48;;;;;;;3.23;2.73;;;13.20;99.90;;;;;;5013065;28;20297;-77
2021/09/21 01:19:15;;;;;;;3.50;2.85;;;13.20;99.90;;;;;;5014059;28;20174;-77
2021/09/21 01:21:45;;;;;;;4.53;2.95;;;13.30;99.90;;;;;;5014157;28;20229;-77
2021/09/21 01:24:16;;;;;;;8.75;3.05;;;13.40;99.90;;;;;;5015143;28;20181;-77
2021/09/21 01:26:42;;;;;;;6.20;2.92;;;13.40;99.90;;;;;;5014780;28;20421;-77
2021/09/21 01:29:08;;;;;;;3.30;2.93;;;13.30;99.90;;;;;;5014299;28;20173;-76
2021/09/21 01:31:34;;;;;;;3.27;2.97;;;13.20;99.90;;;;;;5013992;28;20412;-77
2021/09/21 01:34:00;;;;;;;3.95;2.42;;;13.30;99.90;;;;;;5013566;28;20273;-78
2021/09/21 01:36:28;;;;;;;7.57;3.20;;;13.40;99.90;;;;;;5013859;28;20195;-78
2021/09/21 01:38:54;;;;;;;4.63;3.45;;;13.40;99.90;;;;;;5013760;28;20178;-77
2021/09/21 01:41:20;;;;;;;12.02;2.92;;;13.20;99.90;;;;;;5013583;28;20257;-77
2021/09/21 01:43:46;;;;;;;5.40;2.78;;;13.20;99.90;;;;;;5013796;28;20642;-77
2021/09/21 01:46:18;;;;;;;4.15;2.95;;;13.20;99.90;;;;;;5013182;28;20194;-77
2021/09/21 01:48:45;;;;;;;6.40;3.03;;;13.00;99.90;;;;;;5013483;28;20182;-77
2021/09/21 01:51:16;;;;;;;5.63;2.95;;;13.00;99.90;;;;;;5012359;28;20170;-77
2021/09/21 01:54:20;;;;;;;2.47;2.03;;;12.90;99.90;;;;;;5013131;28;20186;-78
2021/09/21 01:59:17;;;;;;;4.25;3.03;;;13.00;99.90;;;;;;5013278;28;20181;-77
2021/09/21 02:01:43;;;;;;;4.57;2.73;;;13.20;99.90;;;;;;5013046;28;20182;-77
2021/09/21 02:04:09;;;;;;;4.53;3.03;;;13.20;99.90;;;;;;5012860;28;20182;-77
2021/09/21 02:06:40;;;;;;;3.20;2.90;;;13.20;99.90;;;;;;5012846;28;20252;-76
2021/09/21 02:09:08;;;;;;;3.40;2.97;;;13.10;99.90;;;;;;5013195;28;20236;-76
2021/09/21 02:11:34;;;;;;;6.47;2.85;;;13.10;99.90;;;;;;5013054;28;20515;-76
2021/09/21 02:14:01;;;;;;;4.07;2.95;;;13.20;99.90;;;;;;5013142;28;20609;-77
2021/09/21 02:16:29;;;;;;;4.32;3.00;;;13.10;99.90;;;;;;5011424;28;20214;-77
2021/09/21 02:18:55;;;;;;;4.00;3.05;;;12.90;99.90;;;;;;5012727;28;20174;-77
2021/09/21 02:21:21;;;;;;;3.88;2.78;;;12.90;99.90;;;;;;5011582;28;20580;-77
2021/09/21 02:23:49;;;;;;;3.97;2.60;;;12.80;99.90;;;;;;5012680;28;20182;-77
2021/09/21 02:26:15;;;;;;;3.05;2.60;;;12.80;99.90;;;;;;5012882;28;20209;-77
2021/09/21 02:28:40;;;;;;;5.40;2.53;;;12.90;99.90;;;;;;5012800;28;20634;-78
2021/09/21 02:31:06;;;;;;;4.10;2.80;;;13.00;99.90;;;;;;5012990;28;20174;-78
2021/09/21 02:33:31;;;;;;;3.23;2.43;;;13.10;99.90;;;;;;5012771;28;20197;-77
2021/09/21 02:35:57;;;;;;;3.70;2.27;;;13.10;99.90;;;;;;5011283;28;20194;-77
2021/09/21 02:38:23;;;;;;;4.03;2.47;;;13.10;99.90;;;;;;5012607;28;20589;-77
2021/09/21 02:40:52;;;;;;;2.90;2.47;;;13.10;99.90;;;;;;5013134;28;20185;-77
2021/09/21 02:43:17;;;;;;;3.80;2.83;;;13.00;99.90;;;;;;5012386;28;20538;-77
2021/09/21 02:45:43;;;;;;;5.33;2.70;;;12.90;99.90;;;;;;5012264;28;20190;-77
2021/09/21 02:48:12;;;;;;;3.73;2.53;;;12.90;99.90;;;;;;5012673;28;20166;-77
2021/09/21 02:50:37;;;;;;;3.15;2.55;;;12.80;99.90;;;;;;5012542;28;20170;-77
2021/09/21 02:53:03;;;;;;;3.03;2.37;;;13.00;99.90;;;;;;5012132;28;20180;-77
2021/09/21 02:55:29;;;;;;;2.63;2.30;;;13.00;99.90;;;;;;5010945;28;20612;-77
2021/09/21 02:57:54;;;;;;;5.07;3.00;;;13.00;99.90;;;;;;5012693;28;20204;-77
2021/09/21 03:00:25;;;;;;;3.33;2.47;;;13.10;99.90;;;;;;5012724;28;20641;-78
2021/09/21 03:02:52;;;;;;;3.40;2.70;;;13.10;99.90;;;;;;5011116;28;20174;-78
2021/09/21 03:05:25;;;;;;;5.65;2.70;;;13.00;99.90;;;;;;5012458;28;20574;-77
2021/09/21 03:07:57;;;;;;;6.60;3.35;;;13.00;99.90;;;;;;5012768;28;20261;-78
2021/09/21 03:18:40;;;;;;;4.70;2.58;;;12.80;99.90;;;;;;5012296;28;20184;-76
2021/09/21 03:21:06;;;;;;;3.20;2.40;;;12.60;99.90;;;;;;5012272;28;20234;-76
2021/09/21 03:23:32;;;;;;;3.73;3.10;;;12.70;99.90;;;;;;5011844;28;20417;-77
2021/09/21 03:25:57;;;;;;;4.20;2.30;;;12.70;99.90;;;;;;5011935;28;20436;-76
2021/09/21 03:28:24;;;;;;;2.70;2.13;;;12.70;99.90;;;;;;5011754;28;20412;-76
2021/09/21 03:30:49;;;;;;;3.50;2.72;;;12.80;99.90;;;;;;5011707;28;20174;-77
2021/09/21 03:33:18;;;;;;;4.20;3.03;;;12.70;99.90;;;;;;5011437;28;20515;-77
2021/09/21 03:35:44;;;;;;;4.28;3.10;;;12.60;99.90;;;;;;5012056;28;20196;-77
2021/09/21 03:38:09;;;;;;;4.80;2.30;;;12.60;99.90;;;;;;5012111;28;20253;-78
2021/09/21 03:40:35;;;;;;;3.53;2.77;;;12.60;99.90;;;;;;5012220;28;20613;-77
2021/09/21 03:43:01;;;;;;;2.90;2.40;;;12.70;99.90;;;;;;5011848;28;20648;-77
2021/09/21 03:45:27;;;;;;;6.50;3.00;;;12.60;99.90;;;;;;5019745;28;20198;-78
2021/09/21 03:47:54;;;;;;;3.20;2.50;;;12.60;99.90;;;;;;5013030;28;20625;-76
2021/09/21 03:50:20;;;;;;;5.57;2.72;;;12.50;99.90;;;;;;5012524;28;20421;-76
2021/09/21 03:52:45;;;;;;;3.13;2.47;;;12.50;99.90;;;;;;5011732;28;20182;-76
2021/09/21 03:55:12;;;;;;;6.53;3.17;;;12.50;99.90;;;;;;5011258;28;20217;-76
2021/09/21 03:57:37;;;;;;;2.45;1.83;;;12.50;99.90;;;;;;5012323;28;20176;-76
2021/09/21 04:00:04;;;;;;;3.13;2.20;;;12.60;99.90;;;;;;5011494;28;20206;-76
2021/09/21 04:02:30;;;;;;;4.75;3.28;;;12.60;99.90;;;;;;5011396;28;20167;-77
2021/09/21 04:04:55;;;;;;;4.70;3.47;;;12.70;99.90;;;;;;5012682;28;20224;-76
2021/09/21 04:07:21;;;;;;;3.57;3.03;;;12.60;99.90;;;;;;5012298;28;20216;-77
2021/09/21 04:09:47;;;;;;;5.00;3.33;;;12.50;99.90;;;;;;5014982;28;20654;-75
2021/09/21 04:12:15;;;;;;;4.47;3.00;;;12.60;99.90;;;;;;5012877;28;20189;-77
2021/09/21 04:14:41;;;;;;;3.58;2.70;;;12.70;99.90;;;;;;5014567;28;20198;-76
2021/09/21 04:17:06;;;;;;;5.53;2.57;;;12.60;99.90;;;;;;5013488;28;20328;-78
2021/09/21 04:19:32;;;;;;;5.70;3.00;;;12.60;99.90;;;;;;5011857;28;20762;-76
2021/09/21 04:21:57;;;;;;;3.63;2.50;;;12.70;99.90;;;;;;5012038;28;20171;-76
2021/09/21 04:24:23;;;;;;;4.97;3.10;;;12.80;99.90;;;;;;5014679;28;20177;-77
2021/09/21 04:26:49;;;;;;;4.27;2.70;;;12.80;99.90;;;;;;5014824;28;20673;-77
2021/09/21 04:29:15;;;;;;;5.60;2.83;;;12.80;99.90;;;;;;5014778;28;20409;-77
2021/09/21 04:31:43;;;;;;;6.13;3.40;;;12.80;99.90;;;;;;5015045;28;20549;-77
2021/09/21 04:34:12;;;;;;;7.43;3.65;;;12.80;99.90;;;;;;5014605;28;20721;-76
2021/09/21 04:36:38;;;;;;;5.93;3.05;;;12.80;99.90;;;;;;5013759;28;20194;-77
2021/09/21 04:39:04;;;;;;;3.37;2.60;;;13.00;99.90;;;;;;5014579;28;20596;-77
2021/09/21 04:41:30;;;;;;;6.83;3.87;;;13.10;99.90;;;;;;5014588;28;20170;-76
2021/09/21 04:43:56;;;;;;;4.03;2.70;;;13.00;99.90;;;;;;5014276;28;20414;-76
2021/09/21 04:46:22;;;;;;;5.32;3.08;;;12.80;99.90;;;;;;5012983;28;20308;-77
2021/09/21 04:48:50;;;;;;;5.00;3.00;;;12.70;99.90;;;;;;5014697;28;20206;-76
2021/09/21 04:51:16;;;;;;;5.20;3.17;;;12.70;99.90;;;;;;5013276;28;20174;-76
2021/09/21 04:53:41;;;;;;;6.00;3.70;;;12.70;99.90;;;;;;5013996;28;20220;-76
2021/09/21 04:56:07;;;;;;;5.33;3.20;;;12.70;99.90;;;;;;5012959;28;20672;-76
2021/09/21 04:58:32;;;;;;;4.73;2.43;;;12.70;99.90;;;;;;5014354;28;20189;-76
2021/09/21 05:00:58;;;;;;;7.10;4.30;;;12.80;99.90;;;;;;5014174;28;20170;-77
2021/09/21 05:03:23;;;;;;;5.50;3.30;;;12.70;99.90;;;;;;5032771;28;20203;-77
2021/09/21 05:05:49;;;;;;;6.60;3.03;;;12.80;99.90;;;;;;5032864;28;20205;-78
2021/09/21 05:08:14;;;;;;;9.90;6.77;;;12.80;99.90;;;;;;5034240;28;20178;-77
2021/09/21 05:10:40;;;;;;;10.10;3.30;;;12.90;99.90;;;;;;5033743;28;20613;-78
2021/09/21 05:13:06;;;;;;;4.43;2.60;;;13.00;99.90;;;;;;5034244;28;20216;-78
2021/09/21 05:15:34;;;;;;;3.57;2.50;;;13.00;99.90;;;;;;5035513;28;20259;-78
2021/09/21 05:18:00;;;;;;;4.68;2.90;;;13.10;99.90;;;;;;5033689;28;20173;-77
2021/09/21 05:20:25;;;;;;;6.77;4.10;;;12.90;99.90;;;;;;5032532;28;20545;-77
2021/09/21 05:22:53;;;;;;;4.63;3.17;;;13.00;99.90;;;;;;5033725;28;20174;-77
2021/09/21 05:25:19;;;;;;;7.93;3.35;;;13.00;99.90;;;;;;5033931;28;20201;-78
2021/09/21 05:27:45;;;;;;;4.28;2.90;;;12.90;99.90;;;;;;5033613;28;20185;-78
2021/09/21 05:30:11;;;;;;;5.90;2.90;;;12.80;99.90;;;;;;5017216;28;20285;-78
2021/09/21 05:32:37;;;;;;;6.78;3.15;;;12.80;99.90;;;;;;5020409;28;20420;-77
2021/09/21 05:35:03;;;;;;;3.33;2.33;;;12.80;99.90;;;;;;5032683;28;20311;-78
2021/09/21 05:37:30;;;;;;;4.45;3.20;;;12.80;99.90;;;;;;5033602;28;20194;-78
2021/09/21 05:39:56;;;;;;;7.53;3.40;;;12.80;99.90;;;;;;5022588;28;20172;-78
2021/09/21 05:42:22;;;;;;;6.25;4.07;;;12.90;99.90;;;;;;5028856;28;20189;-78
2021/09/21 05:44:50;;;;;;;4.57;3.20;;;12.80;99.90;;;;;;5013866;28;20185;-79
2021/09/21 05:47:16;;;;;;;6.22;3.88;;;12.80;99.90;;;;;;5033921;28;20219;-79
2021/09/21 05:49:42;;;;;;;4.50;3.30;;;13.00;99.90;;;;;;5030237;28;20301;-78
2021/09/21 05:52:07;;;;;;;8.50;3.47;;;13.20;99.90;;;;;;5031855;28;20184;-78
2021/09/21 05:54:33;;;;;;;3.50;3.00;;;13.30;99.90;;;;;;5031132;28;20576;-78
2021/09/21 05:56:59;;;;;;;4.83;2.73;;;13.20;99.90;;;;;;5031538;28;20173;-77
2021/09/21 05:59:25;;;;;;;3.97;2.77;;;13.30;99.90;;;;;;5031357;28;20166;-78
2021/09/21 06:01:50;;;;;;;5.03;3.25;;;13.30;99.90;;;;;;5032036;28;20415;-77
2021/09/21 06:04:16;;;;;;;5.77;2.80;;;13.40;99.90;;;;;;5032569;28;20181;-78
2021/09/21 06:06:42;;;;;;;7.00;2.97;;;13.40;99.90;;;;;;5031266;28;20604;-79
2021/09/21 06:09:07;;;;;;;3.20;2.60;;;13.30;99.90;;;;;;5032956;28;20243;-78
2021/09/21 06:11:33;;;;;;;3.50;3.10;;;13.20;99.90;;;;;;5031574;28;20184;-78
2021/09/21 06:14:01;;;;;;;4.03;3.03;;;13.40;99.90;;;;;;5031395;28;20205;-77
2021/09/21 06:16:27;;;;;;;5.60;3.33;;;13.50;99.90;;;;;;5032049;28;20553;-78
2021/09/21 06:18:56;;;;;;;5.38;3.22;;;13.50;99.90;;;;;;5024676;28;20170;-78
2021/09/21 06:21:22;;;;;;;4.15;3.60;;;13.30;99.90;;;;;;5013369;28;20174;-77
2021/09/21 06:23:48;;;;;;;4.20;3.80;;;13.30;99.90;;;;;;5027118;28;20181;-78
2021/09/21 06:26:14;;;;;;;9.30;3.00;;;13.40;99.90;;;;;;5013172;28;20198;-77
2021/09/21 06:28:40;;;;;;;4.43;2.90;;;13.50;99.90;;;;;;5026922;28;20170;-76
2021/09/21 06:31:06;;;;;;;5.23;3.50;;;13.60;99.90;;;;;;5032313;28;20647;-76
2021/09/21 06:33:32;;;;;;;3.70;2.85;;;13.60;99.90;;;;;;5031346;28;20280;-76
2021/09/21 06:36:01;;;;;;;5.43;3.83;;;13.70;99.90;;;;;;5032377;28;20289;-77
2021/09/21 06:38:26;;;;;;;4.20;2.78;;;13.50;99.90;;;;;;5031721;28;20357;-77
2021/09/21 06:40:52;;;;;;;7.23;3.17;;;13.80;99.90;;;;;;5032126;28;20256;-77
2021/09/21 06:43:17;;;;;;;5.13;3.37;;;13.90;99.90;;;;;;5030523;28;20209;-76
2021/09/21 06:45:43;;;;;;;3.90;3.43;;;13.80;99.90;;;;;;5030380;28;20204;-77
2021/09/21 06:48:09;;;;;;;6.30;3.47;;;13.90;99.90;;;;;;5027336;28;20233;-75
2021/09/21 06:50:37;;;;;;;3.87;2.67;;;14.00;99.90;;;;;;5012665;28;20515;-78
2021/09/21 06:53:03;;;;;;;4.77;2.93;;;14.00;99.90;;;;;;5030918;28;20268;-77
2021/09/21 06:55:28;;;;;;;6.07;3.97;;;14.00;99.90;;;;;;5031459;28;20893;-77
2021/09/21 06:57:56;;;;;;;8.33;3.47;;;14.00;99.90;;;;;;5031356;28;20189;-77
2021/09/21 07:00:22;;;;;;;4.07;3.20;;;14.10;99.90;;;;;;5030256;28;20665;-77
2021/09/21 07:02:52;;;;;;;4.28;3.22;;;14.10;99.90;;;;;;5027761;28;20198;-78
2021/09/21 07:05:19;;;;;;;3.70;2.80;;;13.80;99.90;;;;;;5016748;28;20208;-76
2021/09/21 07:07:46;;;;;;;4.75;3.13;;;13.80;99.90;;;;;;5031660;28;20620;-80
2021/09/21 07:10:12;;;;;;;3.53;2.65;;;13.70;99.90;;;;;;5036133;28;20190;-81
2021/09/21 07:12:39;;;;;;;6.43;3.08;;;13.60;99.90;;;;;;5036777;28;20179;-81
2021/09/21 07:15:05;;;;;;;4.20;2.83;;;13.60;99.90;;;;;;5029751;28;20305;-78
2021/09/21 07:17:31;;;;;;;7.38;3.60;;;13.70;99.90;;;;;;5020885;28;20175;-78
2021/09/21 07:19:56;;;;;;;5.20;3.20;;;13.90;99.90;;;;;;5031009;28;20176;-77
2021/09/21 07:22:22;;;;;;;6.50;3.63;;;13.90;99.90;;;;;;5017169;28;20185;-79
2021/09/21 07:24:49;;;;;;;4.03;3.17;;;13.90;99.90;;;;;;5033785;28;20179;-78
2021/09/21 07:27:15;;;;;;;4.72;3.30;;;13.80;99.90;;;;;;5039304;28;20178;-79
2021/09/21 07:29:41;;;;;;;5.60;4.13;;;14.00;99.90;;;;;;5013275;28;20233;-79
2021/09/21 07:32:06;;;;;;;4.80;3.00;;;14.20;99.90;;;;;;5046352;28;20199;-79
2021/09/21 07:34:32;;;;;;;8.53;3.20;;;14.40;99.90;;;;;;5043011;28;20301;-79
2021/09/21 07:36:58;;;;;;;4.87;3.07;;;14.50;99.90;;;;;;5025305;28;20195;-79
2021/09/21 07:39:24;;;;;;;6.77;3.33;;;14.50;99.90;;;;;;5043807;28;20215;-77
2021/09/21 07:41:53;;;;;;;3.60;2.50;;;14.60;99.90;;;;;;5032444;28;20429;-76
2021/09/21 07:44:19;;;;;;;3.93;3.30;;;14.40;99.90;;;;;;5032332;28;20412;-78
2021/09/21 07:46:45;;;;;;;3.03;2.17;;;14.50;99.90;;;;;;5031593;28;20485;-78
2021/09/21 07:49:11;;;;;;;4.93;2.63;;;14.80;99.90;;;;;;5029883;28;20973;-77
2021/09/21 07:51:36;;;;;;;3.87;2.60;;;15.00;99.90;;;;;;5014394;28;20178;-78
2021/09/21 07:54:02;;;;;;;3.40;2.10;;;14.90;99.90;;;;;;5033153;28;20223;-84
2021/09/21 07:56:28;;;;;;;4.10;2.87;;;15.00;99.90;;;;;;5039399;28;20204;-84
2021/09/21 07:58:57;;;;;;;2.90;2.10;;;15.00;99.90;;;;;;5035151;28;21000;-83
2021/09/21 08:01:23;;;;;;;4.80;2.53;;;14.90;99.90;;;;;;5037622;28;20419;-81
2021/09/21 08:03:48;;;;;;;3.07;2.07;;;14.90;99.90;;;;;;5045381;28;20498;-81
2021/09/21 08:06:14;;;;;;;9.00;2.90;;;14.70;99.90;;;;;;5000549;28;20643;-79
2021/09/21 08:08:40;;;;;;;5.30;2.90;;;14.60;99.90;;;;;;5029602;28;20180;-82
2021/09/21 08:11:08;;;;;;;4.23;2.13;;;14.80;99.90;;;;;;5036222;28;20184;-78
2021/09/21 08:13:34;;;;;;;6.50;3.10;;;15.10;99.90;;;;;;5036222;28;20467;-79
2021/09/21 08:16:00;;;;;;;7.20;3.20;;;15.30;99.90;;;;;;5028997;28;20546;-80
2021/09/21 08:18:26;;;;;;;4.27;3.23;;;15.40;99.90;;;;;;5037698;28;20888;-81
2021/09/21 08:20:52;;;;;;;4.90;2.80;;;15.60;99.90;;;;;;5035499;28;20307;-82
2021/09/21 08:23:18;;;;;;;3.10;2.27;;;15.70;99.90;;;;;;5017995;28;20420;-80
2021/09/21 08:25:43;;;;;;;3.93;2.50;;;15.80;99.90;;;;;;5017803;28;20863;-79
2021/09/21 08:28:09;;;;;;;5.00;3.10;;;15.90;99.90;;;;;;5035618;28;20583;-81
2021/09/21 08:30:34;;;;;;;6.63;2.20;;;15.80;99.90;;;;;;5030977;28;20577;-80
2021/09/21 08:33:01;;;;;;;4.30;2.60;;;15.80;99.90;;;;;;5022572;28;20532;-79
2021/09/21 08:35:27;;;;;;;3.40;2.70;;;15.90;99.90;;;;;;5025961;28;20202;-80
2021/09/21 08:37:52;;;;;;;3.77;2.60;;;16.10;99.90;;;;;;5015411;28;20419;-80
2021/09/21 08:40:18;;;;;;;3.60;2.50;;;16.10;99.90;;;;;;5016028;28;20424;-80
2021/09/21 08:42:44;;;;;;;2.80;2.10;;;16.10;99.90;;;;;;5035126;28;20493;-80
2021/09/21 08:45:10;;;;;;;3.67;2.23;;;16.10;99.90;;;;;;5019942;28;20245;-81
2021/09/21 08:47:38;;;;;;;3.40;1.83;;;16.20;99.90;;;;;;5024695;28;20427;-80
2021/09/21 08:50:05;;;;;;;2.20;1.63;;;16.00;99.90;;;;;;5024707;28;20421;-82
2021/09/21 08:52:31;;;;;;;6.33;1.90;;;15.90;99.90;;;;;;5015221;28;20420;-81
2021/09/21 08:54:57;;;;;;;5.33;2.50;;;15.80;99.90;;;;;;5032978;28;20535;-81
2021/09/21 08:57:25;;;;;;;3.20;2.17;;;15.60;99.90;;;;;;5034193;28;20424;-82
2021/09/21 08:59:52;;;;;;;2.63;1.60;;;15.70;99.90;;;;;;5030834;28;20467;-80
2021/09/21 09:02:19;;;;;;;2.73;1.67;;;16.00;99.90;;;;;;5032092;28;20764;-81
2021/09/21 09:05:01;;;;;;;4.20;2.07;;;16.10;99.90;;;;;;5033214;28;20438;-80
2021/09/21 09:07:27;;;;;;;3.00;1.87;;;16.20;99.90;;;;;;5031516;28;20474;-81
2021/09/21 09:10:04;;;;;;;2.33;1.50;;;16.00;99.90;;;;;;5033310;28;20817;-81
2021/09/21 09:12:34;;;;;;;4.00;2.20;;;16.00;99.90;;;;;;5031319;28;20177;-81
2021/09/21 09:15:10;;;;;;;2.70;2.23;;;16.10;99.90;;;;;;5032214;28;20460;-80
2021/09/21 09:17:38;;;;;;;4.30;2.43;;;16.30;99.90;;;;;;5028007;28;21018;-80
2021/09/21 09:20:05;;;;;;;2.43;1.50;;;16.30;99.90;;;;;;5031378;28;20457;-80
2021/09/21 09:22:30;;;;;;;4.10;2.00;;;16.40;99.90;;;;;;5026539;28;20421;-80
2021/09/21 09:25:09;;;;;;;5.03;2.07;;;16.50;99.90;;;;;;5032223;28;20499;-80
2021/09/21 09:27:46;;;;;;;4.73;2.20;;;16.50;99.90;;;;;;5032300;28;20169;-81
2021/09/21 09:30:15;;;;;;;3.03;2.20;;;16.30;99.90;;;;;;5017189;28;20420;-80
2021/09/21 09:32:54;;;;;;;3.43;2.60;;;16.40;99.90;;;;;;5034269;28;20524;-81
2021/09/21 09:35:27;;;;;;;2.77;2.20;;;16.50;99.90;;;;;;5034323;28;20480;-82
2021/09/21 09:37:55;;;;;;;3.73;2.50;;;16.50;99.90;;;;;;5032558;28;20428;-81
2021/09/21 09:40:21;;;;;;;3.30;1.90;;;16.60;99.90;;;;;;5033710;28;20501;-81
2021/09/21 09:42:49;;;;;;;3.60;2.20;;;16.60;99.90;;;;;;5033937;28;20431;-81
2021/09/21 09:45:26;;;;;;;3.17;2.10;;;16.60;99.90;;;;;;5032296;28;20524;-81
2021/09/21 09:47:53;;;;;;;2.67;2.20;;;16.50;99.90;;;;;;5034649;28;20558;-80
2021/09/21 09:50:23;;;;;;;3.47;2.43;;;16.20;99.90;;;;;;5034162;28;20463;-80
2021/09/21 09:52:51;;;;;;;4.50;2.77;;;16.20;99.90;;;;;;5033815;28;20420;-80
2021/09/21 09:55:17;;;;;;;6.93;2.60;;;16.20;99.90;;;;;;5031199;28;21248;-80
2021/09/21 09:57:42;;;;;;;4.07;2.70;;;16.10;99.90;;;;;;5033272;28;20424;-81
2021/09/21 10:00:09;;;;;;;4.27;2.90;;;16.20;99.90;;;;;;5024464;28;20216;-81
2021/09/21 10:02:35;;;;;;;4.00;2.47;;;16.20;99.90;;;;;;5033704;28;20173;-81
2021/09/21 10:05:00;;;;;;;5.87;3.60;;;16.30;99.90;;;;;;5029675;28;20436;-80
2021/09/21 10:07:26;;;;;;;3.97;2.87;;;16.40;99.90;;;;;;5031260;28;20425;-80
2021/09/21 10:09:53;;;;;;;2.40;2.10;;;16.50;99.90;;;;;;5016772;28;20186;-82
2021/09/21 10:12:19;;;;;;;3.73;2.63;;;16.50;99.90;;;;;;5021336;28;20182;-80
2021/09/21 10:14:45;;;;;;;6.07;3.70;;;16.20;99.90;;;;;;5032600;28;20551;-81
2021/09/21 10:17:10;;;;;;;3.97;3.30;;;16.30;99.90;;;;;;5014206;28;20447;-80
2021/09/21 10:19:40;;;;;;;6.40;3.30;;;16.50;99.90;;;;;;5033802;28;20181;-82
2021/09/21 10:22:07;;;;;;;3.73;2.80;;;16.70;99.90;;;;;;5033342;28;20194;-80
2021/09/21 10:24:38;;;;;;;6.47;3.23;;;16.70;99.90;;;;;;5032622;28;20466;-82
2021/09/21 10:27:11;;;;;;;2.50;2.30;;;16.80;99.90;;;;;;5034521;28;20433;-82
2021/09/21 10:29:37;;;;;;;3.10;2.20;;;16.80;99.90;;;;;;5018224;28;20777;-81
2021/09/21 10:32:14;;;;;;;2.37;2.17;;;16.80;99.90;;;;;;5028180;28;20798;-82
2021/09/21 10:34:46;;;;;;;3.00;2.37;;;16.90;99.90;;;;;;5036524;28;20473;-81
2021/09/21 10:37:13;;;;;;;15.80;3.33;;;16.80;99.90;;;;;;5036714;28;20422;-81
2021/09/21 10:39:39;;;;;;;5.60;2.77;;;17.00;99.90;;;;;;5034392;28;20418;-82
2021/09/21 10:42:07;;;;;;;4.60;2.93;;;17.00;99.90;;;;;;5035840;28;20846;-81
2021/09/21 10:44:33;;;;;;;2.73;2.20;;;17.00;99.90;;;;;;5032654;28;20460;-80
2021/09/21 10:47:05;;;;;;;2.23;1.97;;;17.00;99.90;;;;;;5033042;28;20792;-81
2021/09/21 10:49:38;;;;;;;2.43;2.03;;;17.00;99.90;;;;;;5034306;28;20587;-79
2021/09/21 10:52:07;;;;;;;3.70;2.57;;;17.00;99.90;;;;;;5021053;28;20434;-81
2021/09/21 10:54:39;;;;;;;3.57;2.30;;;16.80;99.90;;;;;;5018656;28;20458;-80
2021/09/21 10:57:16;;;;;;;5.77;3.00;;;16.80;99.90;;;;;;5034317;28;20426;-80
2021/09/21 10:59:52;;;;;;;7.60;3.60;;;16.90;99.90;;;;;;5033698;28;20412;-82
2021/09/21 11:02:21;;;;;;;4.60;2.60;;;16.80;99.90;;;;;;5031596;28;20415;-81
2021/09/21 11:04:46;;;;;;;7.00;2.33;;;16.70;99.90;;;;;;5009356;28;20423;-81
2021/09/21 11:07:13;;;;;;;4.73;3.03;;;16.70;99.90;;;;;;5034067;28;20590;-81
2021/09/21 11:09:39;;;;;;;6.37;2.40;;;16.60;99.90;;;;;;5028055;28;20726;-82
2021/09/21 11:12:07;;;;;;;2.93;2.30;;;16.50;99.90;;;;;;5032532;28;20427;-80
2021/09/21 11:14:39;;;;;;;6.63;2.63;;;16.40;99.90;;;;;;5031605;28;20204;-81
2021/09/21 11:17:05;;;;;;;4.10;2.87;;;16.30;99.90;;;;;;5031415;28;20488;-81
2021/09/21 11:19:32;;;;;;;4.53;2.80;;;16.30;99.90;;;;;;5033115;28;20474;-81
2021/09/21 11:22:06;;;;;;;4.97;2.97;;;16.10;99.90;;;;;;5012819;28;20421;-82
2021/09/21 11:24:33;;;;;;;2.70;2.30;;;16.00;99.90;;;;;;5018669;28;21109;-81
2021/09/21 11:27:09;;;;;;;3.87;2.50;;;15.80;99.90;;;;;;5021328;28;20831;-81
2021/09/21 11:29:40;;;;;;;3.93;2.20;;;15.80;99.90;;;;;;5029465;28;20424;-81
2021/09/21 11:32:20;;;;;;;6.27;2.33;;;15.80;99.90;;;;;;5031926;28;20428;-82
2021/09/21 11:35:06;;;;;;;3.20;2.70;;;15.70;99.90;;;;;;5035778;28;20462;-81
2021/09/21 11:37:32;;;;;;;3.87;3.27;;;16.00;99.90;;;;;;5035586;28;20450;-82
2021/09/21 11:39:58;;;;;;;8.13;2.83;;;16.20;99.90;;;;;;5036731;28;20462;-84
2021/09/21 11:42:31;;;;;;;4.43;2.60;;;16.30;99.90;;;;;;5036212;28;20415;-83
2021/09/21 11:45:01;;;;;;;3.57;2.40;;;16.40;99.90;;;;;;5033729;28;20451;-82
2021/09/21 11:47:43;;;;;;;2.50;1.60;;;16.50;99.90;;;;;;5035530;28;20483;-82
2021/09/21 11:50:12;;;;;;;3.63;2.93;;;16.30;99.90;;;;;;5036118;28;20417;-82
2021/09/21 11:52:37;;;;;;;5.07;2.93;;;16.50;99.90;;;;;;5027298;28;20460;-80
2021/09/21 11:55:11;;;;;;;3.87;2.73;;;16.50;99.90;;;;;;5019689;28;20843;-82
2021/09/21 11:57:37;;;;;;;3.37;1.90;;;16.60;99.90;;;;;;5024252;28;20417;-82
2021/09/21 12:00:04;;;;;;;5.20;2.60;;;16.60;99.90;;;;;;5035346;28;20756;-82
2021/09/21 12:02:34;;;;;;;3.63;2.20;;;16.30;99.90;;;;;;5037282;28;20480;-81
2021/09/21 12:05:00;;;;;;;4.10;2.93;;;16.50;99.90;;;;;;5036627;28;20440;-81
2021/09/21 12:07:27;;;;;;;6.43;2.90;;;16.40;99.90;;;;;;5038405;28;20915;-81
2021/09/21 12:09:54;;;;;;;3.77;2.47;;;16.60;99.90;;;;;;5036462;28;20420;-81
2021/09/21 12:12:22;;;;;;;3.00;2.47;;;16.50;99.90;;;;;;5036077;28;21006;-81
2021/09/21 12:14:57;;;;;;;3.47;2.30;;;16.40;99.90;;;;;;5039099;28;20477;-80
2021/09/21 12:17:23;;;;;;;8.47;2.77;;;16.30;99.90;;;;;;5039129;28;20495;-82
2021/09/21 12:19:55;;;;;;;4.03;2.43;;;16.10;99.90;;;;;;5041053;28;20408;-81
2021/09/21 12:22:20;;;;;;;3.30;2.00;;;16.00;99.90;;;;;;5040186;28;20453;-80
2021/09/21 12:24:46;;;;;;;3.30;2.50;;;16.10;99.90;;;;;;5036619;28;20424;-81
2021/09/21 12:27:15;;;;;;;2.80;2.00;;;16.00;99.90;;;;;;5023777;28;20189;-82
2021/09/21 12:29:41;;;;;;;3.20;2.20;;;15.80;99.90;;;;;;5038609;28;20208;-81
2021/09/21 12:32:06;;;;;;;4.03;2.73;;;15.90;99.90;;;;;;5041197;28;20931;-80
2021/09/21 12:34:34;;;;;;;4.60;2.90;;;15.90;99.90;;;;;;5030672;28;20711;-82
2021/09/21 12:37:00;;;;;;;4.70;3.07;;;16.10;99.90;;;;;;5037905;28;20179;-80
2021/09/21 12:39:35;;;;;;;3.50;2.57;;;16.20;99.90;;;;;;5026847;28;20423;-79
2021/09/21 12:42:03;;;;;;;2.70;2.40;;;16.40;99.90;;;;;;5039606;28;20503;-79
2021/09/21 12:44:29;;;;;;;4.97;2.37;;;16.50;99.90;;;;;;5036262;28;20426;-83
2021/09/21 12:46:57;;;;;;;4.40;3.07;;;16.40;99.90;;;;;;5042896;28;20579;-80
2021/09/21 12:49:25;;;;;;;5.80;2.53;;;16.50;99.90;;;;;;5027156;28;20444;-82
2021/09/21 12:51:55;;;;;;;4.10;2.70;;;16.40;99.90;;;;;;5032454;28;20791;-81
2021/09/21 12:54:26;;;;;;;3.37;2.50;;;16.20;99.90;;;;;;5040955;28;20443;-81
2021/09/21 12:56:54;;;;;;;5.20;3.23;;;16.20;99.90;;;;;;5038686;28;20440;-80